createdAt,value
2022-12-03T00:02:21.759Z,-3.00
2022-12-03T00:04:48.355Z,-2.82
2022-12-03T00:07:14.850Z,-2.97
2022-12-03T00:09:41.282Z,-3.13
2022-12-03T00:12:07.680Z,-3.05
2022-12-03T00:14:34.149Z,-3.08
2022-12-03T00:17:00.589Z,-3.06
2022-12-03T00:19:27.013Z,-3.03
2022-12-03T00:21:53.904Z,-2.99
2022-12-03T00:24:20.336Z,-2.97
2022-12-03T00:26:46.745Z,-2.94
2022-12-03T00:29:13.219Z,-2.89
2022-12-03T00:31:39.694Z,-2.88
2022-12-03T00:34:06.117Z,-2.88
2022-12-03T00:36:32.554Z,-3.09
2022-12-03T00:38:58.976Z,-2.95
2022-12-03T00:41:25.391Z,-2.98
2022-12-03T00:43:52.850Z,-2.97
2022-12-03T00:46:21.986Z,-3.03
2022-12-03T00:48:48.514Z,-2.95
2022-12-03T00:51:15.082Z,-2.95
2022-12-03T00:53:41.532Z,-3.01
2022-12-03T00:56:08.371Z,-3.12
2022-12-03T00:58:34.886Z,-3.08
2022-12-03T01:01:01.391Z,-3.13
2022-12-03T01:03:27.964Z,-3.12
2022-12-03T01:05:56.490Z,-3.37
2022-12-03T01:08:24.342Z,-3.12
2022-12-03T01:10:50.759Z,-3.20
2022-12-03T01:13:17.244Z,-3.17
2022-12-03T01:15:43.733Z,-3.07
2022-12-03T01:18:10.208Z,-2.94
2022-12-03T01:20:38.502Z,-2.97
2022-12-03T01:23:05.218Z,-3.11
2022-12-03T01:25:32.890Z,-3.09
2022-12-03T01:27:59.365Z,-3.02
2022-12-03T01:30:25.804Z,-3.06
2022-12-03T01:32:52.238Z,-3.16
2022-12-03T01:35:18.809Z,-3.21
2022-12-03T01:37:45.212Z,-3.21
2022-12-03T01:40:16.177Z,-3.20
2022-12-03T01:42:42.833Z,-3.29
2022-12-03T01:45:21.504Z,-3.28
2022-12-03T01:47:48.078Z,-3.31
2022-12-03T01:50:19.897Z,-3.24
2022-12-03T01:52:47.386Z,-3.32
2022-12-03T01:55:16.790Z,-3.30
2022-12-03T01:57:49.748Z,-3.25
2022-12-03T02:00:18.747Z,-3.31
2022-12-03T02:02:45.622Z,-3.32
2022-12-03T02:05:18.987Z,-3.45
2022-12-03T02:07:45.562Z,-3.45
2022-12-03T02:10:13.641Z,-3.48
2022-12-03T02:12:44.268Z,-3.49
2022-12-03T02:15:11.130Z,-3.60
2022-12-03T02:17:37.742Z,-3.56
2022-12-03T02:20:06.094Z,-3.46
2022-12-03T02:22:54.405Z,-3.42
2022-12-03T02:25:23.515Z,-3.35
2022-12-03T02:27:50.518Z,-3.45
2022-12-03T02:30:20.321Z,-3.67
2022-12-03T02:32:47.803Z,-3.66
2022-12-03T02:35:19.803Z,-3.73
2022-12-03T02:37:48.222Z,-3.69
2022-12-03T02:40:19.029Z,-3.65
2022-12-03T02:42:50.469Z,-3.68
2022-12-03T02:45:21.500Z,-3.53
2022-12-03T02:47:53.361Z,-3.66
2022-12-03T02:50:22.310Z,-3.68
2022-12-03T02:52:49.330Z,-3.67
2022-12-03T02:55:16.573Z,-3.69
2022-12-03T02:57:48.099Z,-3.66
2022-12-03T03:00:15.575Z,-3.71
2022-12-03T03:02:44.667Z,-3.80
2022-12-03T03:05:12.560Z,-3.72
2022-12-03T03:07:39.683Z,-3.61
2022-12-03T03:10:07.777Z,-3.55
2022-12-03T03:12:39.284Z,-3.74
2022-12-03T03:15:08.165Z,-3.70
2022-12-03T03:17:35.078Z,-3.64
2022-12-03T03:20:02.529Z,-3.56
2022-12-03T03:22:40.186Z,-3.63
2022-12-03T03:25:13.121Z,-3.59
2022-12-03T03:27:40.893Z,-3.79
2022-12-03T03:30:16.061Z,-3.73
2022-12-03T03:32:42.799Z,-3.76
2022-12-03T03:35:10.214Z,-3.85
2022-12-03T03:37:36.740Z,-3.95
2022-12-03T03:40:03.407Z,-3.95
2022-12-03T03:42:29.857Z,-3.92
2022-12-03T03:44:56.440Z,-3.78
2022-12-03T03:47:23.826Z,-3.74
2022-12-03T03:49:50.865Z,-3.77
2022-12-03T03:52:19.038Z,-3.73
2022-12-03T03:54:45.850Z,-3.77
2022-12-03T03:57:12.534Z,-3.86
2022-12-03T03:59:38.961Z,-3.96
2022-12-03T04:02:05.386Z,-3.89
2022-12-03T04:04:35.751Z,-3.90
2022-12-03T04:07:02.635Z,-3.87
2022-12-03T04:09:31.654Z,-3.90
2022-12-03T04:12:17.539Z,-3.86
2022-12-03T04:14:44.002Z,-3.82
2022-12-03T04:17:12.999Z,-3.92
2022-12-03T04:19:39.447Z,-4.06
2022-12-03T04:22:24.333Z,-3.96
2022-12-03T04:24:51.185Z,-4.01
2022-12-03T04:27:36.280Z,-3.87
2022-12-03T04:30:04.529Z,-3.82
2022-12-03T04:32:52.437Z,-3.81
2022-12-03T04:35:44.393Z,-3.92
2022-12-03T04:38:12.210Z,-3.97
2022-12-03T04:40:58.899Z,-3.94
2022-12-03T04:43:27.413Z,-3.95
2022-12-03T04:45:54.696Z,-4.00
2022-12-03T04:48:21.194Z,-4.01
2022-12-03T04:50:50.609Z,-3.94
2022-12-03T04:53:17.028Z,-3.95
2022-12-03T04:55:43.470Z,-3.98
2022-12-03T04:58:10.123Z,-3.96
2022-12-03T05:00:36.618Z,-4.07
2022-12-03T05:03:03.259Z,-4.10
2022-12-03T05:05:29.751Z,-4.14
2022-12-03T05:07:57.295Z,-4.08
2022-12-03T05:10:23.820Z,-4.02
2022-12-03T05:12:50.240Z,-4.09
2022-12-03T05:15:16.739Z,-4.00
2022-12-03T05:17:43.205Z,-3.97
2022-12-03T05:20:52.930Z,-4.04
2022-12-03T05:23:21.678Z,-3.96
2022-12-03T05:25:48.309Z,-3.72
2022-12-03T05:28:14.778Z,-3.63
2022-12-03T05:30:41.581Z,-3.93
2022-12-03T05:33:08.097Z,-3.74
2022-12-03T05:35:34.521Z,-3.77
2022-12-03T05:38:01.275Z,-3.59
2022-12-03T05:40:28.043Z,-3.56
2022-12-03T05:42:54.550Z,-3.66
2022-12-03T05:46:03.425Z,-3.66
2022-12-03T05:48:29.893Z,-3.70
2022-12-03T05:50:56.371Z,-3.68
2022-12-03T05:53:22.917Z,-3.68
2022-12-03T05:55:49.331Z,-3.80
2022-12-03T05:58:15.750Z,-3.75
2022-12-03T06:00:44.949Z,-3.75
2022-12-03T06:03:11.624Z,-3.74
2022-12-03T06:05:38.305Z,-3.82
2022-12-03T06:08:05.056Z,-3.78
2022-12-03T06:10:31.583Z,-3.88
2022-12-03T06:12:58.003Z,-3.88
2022-12-03T06:15:24.538Z,-3.84
2022-12-03T06:17:51.602Z,-3.82
2022-12-03T06:20:19.772Z,-3.84
2022-12-03T06:22:46.777Z,-3.77
2022-12-03T06:25:14.358Z,-3.76
2022-12-03T06:27:40.754Z,-3.68
2022-12-03T06:30:08.959Z,-3.60
2022-12-03T06:32:35.534Z,-3.60
2022-12-03T06:35:02.202Z,-3.61
2022-12-03T06:37:28.869Z,-3.58
2022-12-03T06:39:55.302Z,-3.44
2022-12-03T06:42:21.919Z,-3.38
2022-12-03T06:44:48.545Z,-3.51
2022-12-03T06:47:16.599Z,-3.60
2022-12-03T06:49:43.057Z,-3.69
2022-12-03T06:52:09.547Z,-3.73
2022-12-03T06:54:36.003Z,-3.73
2022-12-03T06:57:02.599Z,-3.73
2022-12-03T06:59:35.251Z,-3.63
2022-12-03T07:02:01.832Z,-3.61
2022-12-03T07:04:28.266Z,-3.52
2022-12-03T07:06:54.731Z,-3.47
2022-12-03T07:09:59.189Z,-3.49
2022-12-03T07:13:03.339Z,-3.49
2022-12-03T07:15:29.847Z,-3.68
2022-12-03T07:17:56.262Z,-3.62
2022-12-03T07:20:22.850Z,-3.56
2022-12-03T07:22:49.316Z,-3.44
2022-12-03T07:25:19.652Z,-3.37
2022-12-03T07:27:49.467Z,-3.34
2022-12-03T07:30:16.385Z,-3.51
2022-12-03T07:32:42.833Z,-3.50
2022-12-03T07:35:09.680Z,-3.41
2022-12-03T07:37:36.426Z,-3.51
2022-12-03T07:40:03.571Z,-3.46
2022-12-03T07:42:30.260Z,-3.31
2022-12-03T07:44:56.808Z,-3.22
2022-12-03T07:47:23.311Z,-3.15
2022-12-03T07:49:49.847Z,-3.31
2022-12-03T07:52:16.355Z,-3.28
2022-12-03T07:54:43.659Z,-3.51
2022-12-03T07:57:10.106Z,-3.59
2022-12-03T07:59:36.727Z,-3.57
2022-12-03T08:02:03.337Z,-3.37
2022-12-03T08:04:54.496Z,-3.24
2022-12-03T08:07:21.433Z,-3.47
2022-12-03T08:09:47.954Z,-3.52
2022-12-03T08:13:17.010Z,-3.50
2022-12-03T08:15:44.007Z,-3.53
2022-12-03T08:22:01.595Z,-3.59
2022-12-03T08:24:29.253Z,-3.46
2022-12-03T08:26:57.054Z,-3.33
2022-12-03T08:29:24.915Z,-3.44
2022-12-03T08:31:55.186Z,-3.24
2022-12-03T08:34:23.957Z,-3.33
2022-12-03T08:36:59.657Z,-3.38
2022-12-03T08:39:30.256Z,-3.33
2022-12-03T08:42:21.143Z,-3.22
2022-12-03T08:44:47.710Z,-3.18
2022-12-03T08:47:19.296Z,-3.06
2022-12-03T08:49:51.729Z,-3.26
2022-12-03T08:52:47.356Z,-3.41
2022-12-03T08:55:35.630Z,-3.46
2022-12-03T08:58:18.331Z,-3.28
2022-12-03T09:00:52.057Z,-3.25
2022-12-03T09:03:19.211Z,-3.06
2022-12-03T09:05:45.640Z,-2.89
2022-12-03T09:08:12.280Z,-3.14
2022-12-03T09:10:38.775Z,-3.01
2022-12-03T09:13:25.759Z,-3.02
2022-12-03T09:15:53.477Z,-2.99
2022-12-03T09:18:19.906Z,-2.93
2022-12-03T09:20:46.347Z,-3.02
2022-12-03T09:23:12.769Z,-3.04
2022-12-03T09:25:39.215Z,-2.95
2022-12-03T09:28:05.680Z,-2.92
2022-12-03T09:30:32.159Z,-3.07
2022-12-03T09:33:00.067Z,-2.97
2022-12-03T09:35:27.559Z,-2.95
2022-12-03T09:37:54.087Z,-2.94
2022-12-03T09:40:21.269Z,-2.86
2022-12-03T09:42:48.270Z,-2.88
2022-12-03T09:45:15.855Z,-2.80
2022-12-03T09:47:46.371Z,-2.92
2022-12-03T09:50:16.678Z,-2.85
2022-12-03T09:52:45.106Z,-2.74
2022-12-03T09:55:15.796Z,-2.70
2022-12-03T09:57:42.365Z,-2.82
2022-12-03T10:00:26.667Z,-2.81
2022-12-03T10:02:55.434Z,-2.78
2022-12-03T10:05:22.767Z,-2.77
2022-12-03T10:07:51.317Z,-2.80
2022-12-03T10:10:21.641Z,-2.81
2022-12-03T10:12:48.613Z,-2.74
2022-12-03T10:15:17.542Z,-2.73
2022-12-03T10:17:46.169Z,-2.79
2022-12-03T10:20:14.199Z,-2.62
2022-12-03T10:22:41.466Z,-2.80
2022-12-03T10:25:11.767Z,-2.95
2022-12-03T10:27:58.770Z,-2.78
2022-12-03T10:30:30.795Z,-2.81
2022-12-03T10:32:58.506Z,-2.71
2022-12-03T10:35:36.788Z,-2.58
2022-12-03T10:38:04.320Z,-2.50
2022-12-03T10:40:36.172Z,-2.58
2022-12-03T10:43:26.298Z,-2.69
2022-12-03T10:46:04.199Z,-2.74
2022-12-03T10:48:33.194Z,-2.75
2022-12-03T10:51:13.739Z,-2.89
2022-12-03T10:53:41.128Z,-2.73
2022-12-03T10:56:15.451Z,-2.67
2022-12-03T10:58:42.101Z,-2.63
2022-12-03T11:01:23.009Z,-2.70
2022-12-03T11:03:50.120Z,-2.67
2022-12-03T11:06:18.911Z,-2.83
2022-12-03T11:08:51.584Z,-2.84
2022-12-03T11:11:23.909Z,-2.61
2022-12-03T11:14:01.274Z,-2.46
2022-12-03T11:16:42.143Z,-2.43
2022-12-03T11:19:20.947Z,-2.45
2022-12-03T11:22:05.814Z,-2.28
2022-12-03T11:24:34.137Z,-2.08
2022-12-03T11:27:00.504Z,-2.04
2022-12-03T11:29:55.679Z,-2.11
2022-12-03T11:32:43.707Z,-2.19
2022-12-03T11:35:26.985Z,-2.45
2022-12-03T11:38:37.990Z,-2.25
2022-12-03T11:41:21.106Z,-2.24
2022-12-03T11:44:00.951Z,-2.07
2022-12-03T11:46:46.450Z,-2.13
2022-12-03T11:49:27.677Z,-2.30
2022-12-03T11:51:54.270Z,-2.20
2022-12-03T11:54:25.862Z,-2.39
2022-12-03T11:56:53.223Z,-2.15
2022-12-03T11:59:20.218Z,-2.17
2022-12-03T12:01:46.922Z,-2.28
2022-12-03T12:04:32.777Z,-2.21
2022-12-03T12:06:59.980Z,-2.21
2022-12-03T12:09:58.950Z,-1.98
2022-12-03T12:12:31.075Z,-1.93
2022-12-03T12:14:58.855Z,-2.13
2022-12-03T12:17:41.299Z,-1.92
2022-12-03T12:20:27.475Z,-1.69
2022-12-03T12:22:55.254Z,-1.93
2022-12-03T12:25:53.910Z,-1.96
2022-12-03T12:28:20.903Z,-2.19
2022-12-03T12:30:48.477Z,-2.09
2022-12-03T12:33:23.071Z,-2.01
2022-12-03T12:35:49.659Z,-2.33
2022-12-03T12:38:20.905Z,-2.17
2022-12-03T12:40:49.382Z,-2.12
2022-12-03T12:43:25.001Z,-2.34
2022-12-03T12:45:56.578Z,-2.24
2022-12-03T12:48:35.986Z,-2.26
2022-12-03T12:51:18.758Z,-2.34
2022-12-03T12:53:47.665Z,-2.03
2022-12-03T12:56:33.624Z,-2.03
2022-12-03T12:59:25.905Z,-2.15
2022-12-03T13:01:52.636Z,-1.96
2022-12-03T13:04:23.702Z,-2.17
2022-12-03T13:06:54.969Z,-2.27
2022-12-03T13:09:23.922Z,-2.38
2022-12-03T13:12:10.154Z,-2.12
2022-12-03T13:14:37.328Z,-2.01
2022-12-03T13:17:24.715Z,-1.91
2022-12-03T13:20:00.496Z,-1.89
2022-12-03T13:22:33.180Z,-1.91
2022-12-03T13:25:27.956Z,-2.12
2022-12-03T13:28:23.847Z,-2.14
2022-12-03T13:30:52.964Z,-2.54
2022-12-03T13:33:26.817Z,-2.38
2022-12-03T13:35:56.926Z,-2.29
2022-12-03T13:38:25.073Z,-2.15
2022-12-03T13:40:59.468Z,-2.17
2022-12-03T13:43:31.341Z,-2.15
2022-12-03T13:45:58.202Z,-2.12
2022-12-03T13:48:31.560Z,-2.10
2022-12-03T13:51:01.982Z,-2.28
2022-12-03T13:53:37.479Z,-2.19
2022-12-03T13:56:27.466Z,-2.22
2022-12-03T13:58:54.923Z,-2.16
2022-12-03T14:01:21.677Z,-2.06
2022-12-03T14:03:48.309Z,-2.16
2022-12-03T14:06:14.793Z,-2.16
2022-12-03T14:08:41.352Z,-2.20
2022-12-03T14:11:07.818Z,-2.22
2022-12-03T14:13:34.282Z,-2.25
2022-12-03T14:16:03.498Z,-2.21
2022-12-03T14:18:31.414Z,-2.25
2022-12-03T14:20:57.905Z,-2.34
2022-12-03T14:23:24.393Z,-2.27
2022-12-03T14:25:50.842Z,-2.09
2022-12-03T14:28:17.326Z,-2.09
2022-12-03T14:30:43.809Z,-2.17
2022-12-03T14:33:10.278Z,-2.26
2022-12-03T14:35:36.726Z,-2.19
2022-12-03T14:38:04.254Z,-2.26
2022-12-03T14:40:33.081Z,-2.24
2022-12-03T14:42:59.530Z,-2.38
2022-12-03T14:45:28.494Z,-2.27
2022-12-03T14:47:55.017Z,-2.27
2022-12-03T14:50:21.490Z,-2.25
2022-12-03T14:52:47.951Z,-2.32
2022-12-03T14:55:14.471Z,-2.36
2022-12-03T14:57:41.389Z,-2.37
2022-12-03T15:00:14.610Z,-2.34
2022-12-03T15:02:41.238Z,-2.44
2022-12-03T15:05:07.997Z,-2.52
2022-12-03T15:07:34.663Z,-2.62
2022-12-03T15:10:01.139Z,-2.51
2022-12-03T15:12:27.763Z,-2.55
2022-12-03T15:14:54.646Z,-2.56
2022-12-03T15:17:31.035Z,-2.66
2022-12-03T15:20:01.680Z,-2.72
2022-12-03T15:22:28.138Z,-2.88
2022-12-03T15:24:54.659Z,-2.78
2022-12-03T15:27:21.141Z,-2.62
2022-12-03T15:29:47.630Z,-2.55
2022-12-03T15:32:16.589Z,-2.51
2022-12-03T15:34:50.293Z,-2.53
2022-12-03T15:37:17.249Z,-2.60
2022-12-03T15:39:52.812Z,-2.61
2022-12-03T15:42:22.100Z,-2.54
2022-12-03T15:44:48.688Z,-2.54
2022-12-03T15:47:15.112Z,-2.52
2022-12-03T15:49:41.639Z,-2.51
2022-12-03T15:52:18.648Z,-2.61
2022-12-03T15:54:46.372Z,-2.61
2022-12-03T15:57:14.322Z,-2.61
2022-12-03T15:59:46.157Z,-2.73
2022-12-03T16:02:12.665Z,-2.74
2022-12-03T16:04:39.155Z,-2.92
2022-12-03T16:07:05.664Z,-2.94
2022-12-03T16:09:34.368Z,-2.88
2022-12-03T16:12:00.807Z,-2.86
2022-12-03T16:14:28.712Z,-2.88
2022-12-03T16:16:55.279Z,-2.88
2022-12-03T16:19:21.719Z,-2.81
2022-12-03T16:21:48.172Z,-2.80
2022-12-03T16:24:14.686Z,-2.87
2022-12-03T16:26:41.116Z,-2.75
2022-12-03T16:29:07.546Z,-2.66
2022-12-03T16:31:34.042Z,-2.56
2022-12-03T16:34:00.525Z,-2.53
2022-12-03T16:36:29.959Z,-2.68
2022-12-03T16:38:56.405Z,-2.61
2022-12-03T16:41:25.140Z,-2.58
2022-12-03T16:43:51.780Z,-2.65
2022-12-03T16:46:20.674Z,-2.56
2022-12-03T16:48:54.127Z,-2.51
2022-12-03T16:51:20.893Z,-2.48
2022-12-03T16:53:47.949Z,-2.52
2022-12-03T16:56:14.846Z,-2.49
2022-12-03T16:58:41.517Z,-2.66
2022-12-03T17:01:08.098Z,-2.72
2022-12-03T17:03:36.877Z,-2.68
2022-12-03T17:06:04.242Z,-2.65
2022-12-03T17:08:31.139Z,-2.61
2022-12-03T17:10:57.966Z,-2.51
2022-12-03T17:13:24.477Z,-2.58
2022-12-03T17:15:51.371Z,-2.53
2022-12-03T17:18:18.019Z,-2.51
2022-12-03T17:20:44.461Z,-2.54
2022-12-03T17:23:11.851Z,-2.51
2022-12-03T17:25:38.302Z,-2.43
2022-12-03T17:28:05.019Z,-2.41
2022-12-03T17:30:31.471Z,-2.41
2022-12-03T17:32:57.938Z,-2.50
2022-12-03T17:35:25.055Z,-2.67
2022-12-03T17:37:52.820Z,-2.79
2022-12-03T17:40:21.421Z,-2.73
2022-12-03T17:42:48.313Z,-2.64
2022-12-03T17:45:14.938Z,-2.59
2022-12-03T17:47:43.811Z,-2.56
2022-12-03T17:50:12.873Z,-2.57
2022-12-03T17:52:40.843Z,-2.55
2022-12-03T17:55:15.712Z,-2.56
2022-12-03T17:57:44.633Z,-2.58
2022-12-03T18:00:11.793Z,-2.48
2022-12-03T18:02:38.263Z,-2.50
2022-12-03T18:05:04.904Z,-2.45
2022-12-03T18:07:31.380Z,-2.36
2022-12-03T18:10:00.529Z,-2.35
2022-12-03T18:12:27.161Z,-2.45
2022-12-03T18:14:53.695Z,-2.46
2022-12-03T18:17:20.190Z,-2.51
2022-12-03T18:19:46.630Z,-2.35
2022-12-03T18:22:16.040Z,-2.27
2022-12-03T18:24:44.937Z,-2.41
2022-12-03T18:27:12.602Z,-2.26
2022-12-03T18:29:39.161Z,-2.18
2022-12-03T18:32:27.008Z,-2.09
2022-12-03T18:34:55.250Z,-2.43
2022-12-03T18:37:21.741Z,-2.34
2022-12-03T18:40:20.209Z,-2.26
2022-12-03T18:42:47.470Z,-2.20
2022-12-03T18:45:14.893Z,-2.23
2022-12-03T18:47:41.449Z,-2.24
2022-12-03T18:50:15.647Z,-2.22
2022-12-03T18:52:42.245Z,-2.35
2022-12-03T18:55:10.840Z,-2.32
2022-12-03T18:57:43.397Z,-2.39
2022-12-03T19:00:14.092Z,-2.30
2022-12-03T19:05:27.286Z,-2.32
2022-12-03T19:07:57.937Z,-2.32
2022-12-03T19:10:24.728Z,-2.32
2022-12-03T19:12:51.444Z,-2.31
2022-12-03T19:15:18.019Z,-2.30
2022-12-03T19:17:50.614Z,-2.25
2022-12-03T19:20:17.255Z,-2.24
2022-12-03T19:22:44.821Z,-2.24
2022-12-03T19:25:11.332Z,-2.25
2022-12-03T19:27:37.825Z,-2.25
2022-12-03T19:30:05.513Z,-2.19
2022-12-03T19:32:35.715Z,-2.14
2022-12-03T19:35:05.039Z,-2.13
2022-12-03T19:37:33.622Z,-2.13
2022-12-03T19:40:00.967Z,-2.08
2022-12-03T19:42:27.631Z,-2.11
2022-12-03T19:44:54.180Z,-2.22
2022-12-03T19:47:24.791Z,-2.25
2022-12-03T19:49:53.005Z,-2.18
2022-12-03T19:52:20.098Z,-2.17
2022-12-03T19:54:47.332Z,-2.17
2022-12-03T19:59:54.941Z,-2.17
2022-12-03T20:02:23.238Z,-2.33
2022-12-03T20:04:50.059Z,-2.30
2022-12-03T20:07:16.511Z,-2.39
2022-12-03T20:09:43.029Z,-2.28
2022-12-03T20:12:09.497Z,-2.08
2022-12-03T20:14:35.964Z,-2.19
2022-12-03T20:17:02.504Z,-2.13
2022-12-03T20:19:31.605Z,-2.14
2022-12-03T20:22:02.574Z,-2.02
2022-12-03T20:24:29.562Z,-2.04
2022-12-03T20:26:59.959Z,-1.87
2022-12-03T20:29:26.468Z,-1.98
2022-12-03T20:31:53.071Z,-1.82
2022-12-03T20:34:19.652Z,-1.75
2022-12-03T20:36:46.126Z,-1.74
2022-12-03T20:39:12.655Z,-1.84
2022-12-03T20:41:39.063Z,-1.88
2022-12-03T20:44:08.039Z,-1.93
2022-12-03T20:46:34.680Z,-1.95
2022-12-03T20:49:01.208Z,-1.94
2022-12-03T20:51:29.934Z,-2.13
2022-12-03T20:53:57.603Z,-2.02
2022-12-03T20:56:31.153Z,-1.92
2022-12-03T20:59:07.536Z,-1.80
2022-12-03T21:01:35.764Z,-1.89
2022-12-03T21:04:04.137Z,-1.84
2022-12-03T21:06:31.343Z,-1.86
2022-12-03T21:08:59.048Z,-1.85
2022-12-03T21:11:29.368Z,-1.87
2022-12-03T21:13:55.962Z,-1.81
2022-12-03T21:16:51.899Z,-1.72
2022-12-03T21:19:12.399Z,-1.75
2022-12-03T21:21:38.857Z,-1.86
2022-12-03T21:24:05.542Z,-1.78
2022-12-03T21:26:33.607Z,-1.73
2022-12-03T21:29:00.040Z,-1.69
2022-12-03T21:31:27.257Z,-1.81
2022-12-03T21:33:54.764Z,-1.78
2022-12-03T21:36:21.523Z,-1.93
2022-12-03T21:38:48.266Z,-1.93
2022-12-03T21:41:14.726Z,-1.98
2022-12-03T21:43:41.742Z,-1.96
2022-12-03T21:47:11.509Z,-1.92
2022-12-03T21:48:57.050Z,-1.87
2022-12-03T21:51:23.549Z,-1.88
2022-12-03T21:53:50.023Z,-1.77
2022-12-03T21:56:19.428Z,-1.68
2022-12-03T21:58:46.287Z,-1.69
2022-12-03T22:01:23.765Z,-1.67
2022-12-03T22:03:50.803Z,-1.68
2022-12-03T22:06:17.854Z,-1.86
2022-12-03T22:08:44.504Z,-1.74
2022-12-03T22:11:19.060Z,-1.79
2022-12-03T22:13:45.656Z,-1.76
2022-12-03T22:16:17.600Z,-1.76
2022-12-03T22:18:44.301Z,-1.78
2022-12-03T22:21:13.325Z,-1.85
2022-12-03T22:23:40.297Z,-1.80
2022-12-03T22:26:09.415Z,-1.82
2022-12-03T22:28:37.339Z,-1.84
2022-12-03T22:31:08.019Z,-1.80
2022-12-03T22:33:34.785Z,-1.74
2022-12-03T22:36:22.118Z,-1.71
2022-12-03T22:38:49.626Z,-1.85
2022-12-03T22:41:16.959Z,-2.05
2022-12-03T22:43:43.393Z,-1.91
2022-12-03T22:46:13.354Z,-1.75
2022-12-03T22:48:43.800Z,-1.54
2022-12-03T22:51:16.083Z,-1.45
2022-12-03T22:53:42.500Z,-1.48
2022-12-03T22:56:09.050Z,-1.53
2022-12-03T22:58:37.313Z,-1.51
2022-12-03T23:01:03.810Z,-1.81
2022-12-03T23:03:30.700Z,-1.61
2022-12-03T23:05:57.187Z,-1.56
2022-12-03T23:08:24.771Z,-1.61
2022-12-03T23:10:52.237Z,-1.64
2022-12-03T23:13:19.554Z,-1.52
2022-12-03T23:15:47.510Z,-1.50
2022-12-03T23:18:14.360Z,-1.59
2022-12-03T23:20:45.077Z,-1.67
2022-12-03T23:23:11.881Z,-1.73
2022-12-03T23:25:38.396Z,-1.82
2022-12-03T23:28:05.565Z,-1.79
2022-12-03T23:30:35.962Z,-1.75
2022-12-03T23:33:02.851Z,-1.69
2022-12-03T23:35:29.346Z,-1.61
2022-12-03T23:37:55.800Z,-1.55
2022-12-03T23:40:22.296Z,-1.64
2022-12-03T23:42:48.807Z,-1.54
2022-12-03T23:45:15.234Z,-1.51
2022-12-03T23:47:41.689Z,-1.61
2022-12-03T23:50:08.363Z,-1.54
2022-12-03T23:52:38.100Z,-1.53
2022-12-03T23:55:05.380Z,-1.45
2022-12-03T23:57:32.035Z,-1.59
2022-12-03T23:59:58.467Z,-1.65
